sensor_id;sensor_type;location;lat;lon;timestamp;pressure;altitude;pressure_sealevel;temperature;humidity
49063;BME280;34876;51.464;-0.150;2023-05-01T00:03:40;101749.89;;;19.49;40.62
49063;BME280;34876;51.464;-0.150;2023-05-01T00:06:11;101749.29;;;19.48;40.71
49063;BME280;34876;51.464;-0.150;2023-05-01T00:08:40;101749.31;;;19.48;40.68
49063;BME280;34876;51.464;-0.150;2023-05-01T00:11:15;101746.03;;;19.47;40.66
49063;BME280;34876;51.464;-0.150;2023-05-01T00:13:44;101744.30;;;19.50;40.63
49063;BME280;34876;51.464;-0.150;2023-05-01T00:16:14;101741.27;;;19.48;40.69
49063;BME280;34876;51.464;-0.150;2023-05-01T00:18:43;101742.18;;;19.49;40.65
49063;BME280;34876;51.464;-0.150;2023-05-01T00:21:12;101741.23;;;19.47;40.77
49063;BME280;34876;51.464;-0.150;2023-05-01T00:23:41;101741.54;;;19.46;40.76
49063;BME280;34876;51.464;-0.150;2023-05-01T00:26:11;101739.35;;;19.47;40.79
49063;BME280;34876;51.464;-0.150;2023-05-01T00:28:40;101735.06;;;19.48;40.74
49063;BME280;34876;51.464;-0.150;2023-05-01T00:31:10;101730.16;;;19.47;40.78
49063;BME280;34876;51.464;-0.150;2023-05-01T00:33:38;101724.12;;;19.47;40.80
49063;BME280;34876;51.464;-0.150;2023-05-01T00:36:18;101720.15;;;19.48;40.82
49063;BME280;34876;51.464;-0.150;2023-05-01T00:38:48;101720.22;;;19.47;40.84
49063;BME280;34876;51.464;-0.150;2023-05-01T00:41:17;101715.95;;;19.48;40.83
49063;BME280;34876;51.464;-0.150;2023-05-01T00:43:47;101710.79;;;19.48;40.86
49063;BME280;34876;51.464;-0.150;2023-05-01T00:46:16;101705.33;;;19.47;40.89
49063;BME280;34876;51.464;-0.150;2023-05-01T00:48:46;101703.02;;;19.45;40.94
49063;BME280;34876;51.464;-0.150;2023-05-01T00:51:15;101702.42;;;19.47;40.93
49063;BME280;34876;51.464;-0.150;2023-05-01T00:53:44;101703.55;;;19.46;40.96
49063;BME280;34876;51.464;-0.150;2023-05-01T00:56:15;101704.18;;;19.47;40.95
49063;BME280;34876;51.464;-0.150;2023-05-01T00:58:48;101697.47;;;19.46;40.98
49063;BME280;34876;51.464;-0.150;2023-05-01T01:01:30;101692.49;;;19.47;41.01
49063;BME280;34876;51.464;-0.150;2023-05-01T01:03:59;101689.47;;;19.45;41.07
49063;BME280;34876;51.464;-0.150;2023-05-01T01:06:36;101683.57;;;19.45;41.04
49063;BME280;34876;51.464;-0.150;2023-05-01T01:09:16;101680.50;;;19.45;41.10
49063;BME280;34876;51.464;-0.150;2023-05-01T01:11:59;101681.16;;;19.45;41.08
49063;BME280;34876;51.464;-0.150;2023-05-01T01:14:41;101679.91;;;19.46;41.12
49063;BME280;34876;51.464;-0.150;2023-05-01T01:17:23;101674.67;;;19.44;41.12
49063;BME280;34876;51.464;-0.150;2023-05-01T01:20:16;101674.72;;;19.45;41.12
49063;BME280;34876;51.464;-0.150;2023-05-01T01:22:59;101669.02;;;19.43;41.21
49063;BME280;34876;51.464;-0.150;2023-05-01T01:25:49;101667.83;;;19.45;41.17
49063;BME280;34876;51.464;-0.150;2023-05-01T01:28:39;101664.59;;;19.45;41.19
49063;BME280;34876;51.464;-0.150;2023-05-01T01:31:20;101663.05;;;19.45;41.16
49063;BME280;34876;51.464;-0.150;2023-05-01T01:34:02;101662.45;;;19.43;41.23
49063;BME280;34876;51.464;-0.150;2023-05-01T01:36:40;101657.57;;;19.43;41.25
49063;BME280;34876;51.464;-0.150;2023-05-01T01:39:21;101651.87;;;19.45;41.22
49063;BME280;34876;51.464;-0.150;2023-05-01T01:41:52;101646.25;;;19.45;41.22
49063;BME280;34876;51.464;-0.150;2023-05-01T01:44:36;101640.94;;;19.43;41.29
49063;BME280;34876;51.464;-0.150;2023-05-01T01:47:10;101637.34;;;19.44;41.25
49063;BME280;34876;51.464;-0.150;2023-05-01T01:49:47;101632.76;;;19.41;41.32
49063;BME280;34876;51.464;-0.150;2023-05-01T01:52:18;101631.10;;;19.36;41.48
49063;BME280;34876;51.464;-0.150;2023-05-01T01:54:57;101629.21;;;19.39;41.40
49063;BME280;34876;51.464;-0.150;2023-05-01T01:57:31;101621.95;;;19.41;41.40
49063;BME280;34876;51.464;-0.150;2023-05-01T02:00:04;101617.40;;;19.40;41.40
49063;BME280;34876;51.464;-0.150;2023-05-01T02:02:36;101614.43;;;19.42;41.38
49063;BME280;34876;51.464;-0.150;2023-05-01T02:05:07;101613.09;;;19.40;41.42
49063;BME280;34876;51.464;-0.150;2023-05-01T02:07:38;101611.57;;;19.40;41.42
49063;BME280;34876;51.464;-0.150;2023-05-01T02:10:11;101616.29;;;19.40;41.49
49063;BME280;34876;51.464;-0.150;2023-05-01T02:12:46;101610.98;;;19.41;41.43
49063;BME280;34876;51.464;-0.150;2023-05-01T02:15:17;101609.55;;;19.39;41.50
49063;BME280;34876;51.464;-0.150;2023-05-01T02:17:50;101605.25;;;19.37;41.53
49063;BME280;34876;51.464;-0.150;2023-05-01T02:20:25;101607.94;;;19.37;41.54
49063;BME280;34876;51.464;-0.150;2023-05-01T02:23:02;101602.93;;;19.36;41.58
49063;BME280;34876;51.464;-0.150;2023-05-01T02:25:37;101600.08;;;19.39;41.55
49063;BME280;34876;51.464;-0.150;2023-05-01T02:28:11;101599.03;;;19.38;41.54
49063;BME280;34876;51.464;-0.150;2023-05-01T02:30:40;101600.57;;;19.39;41.50
49063;BME280;34876;51.464;-0.150;2023-05-01T02:33:10;101598.10;;;19.38;41.55
49063;BME280;34876;51.464;-0.150;2023-05-01T02:35:40;101597.12;;;19.37;41.56
49063;BME280;34876;51.464;-0.150;2023-05-01T02:38:10;101590.54;;;19.37;41.60
49063;BME280;34876;51.464;-0.150;2023-05-01T02:40:41;101584.71;;;19.39;41.55
49063;BME280;34876;51.464;-0.150;2023-05-01T02:43:17;101589.95;;;19.38;41.61
49063;BME280;34876;51.464;-0.150;2023-05-01T02:45:53;101590.69;;;19.39;41.56
49063;BME280;34876;51.464;-0.150;2023-05-01T02:48:25;101589.60;;;19.37;41.62
49063;BME280;34876;51.464;-0.150;2023-05-01T02:51:08;101589.38;;;19.38;41.60
49063;BME280;34876;51.464;-0.150;2023-05-01T02:53:38;101585.33;;;19.37;41.61
49063;BME280;34876;51.464;-0.150;2023-05-01T02:56:12;101584.83;;;19.37;41.61
49063;BME280;34876;51.464;-0.150;2023-05-01T02:58:43;101583.92;;;19.38;41.66
49063;BME280;34876;51.464;-0.150;2023-05-01T03:01:13;101591.31;;;19.37;41.66
49063;BME280;34876;51.464;-0.150;2023-05-01T03:03:43;101592.57;;;19.37;41.66
49063;BME280;34876;51.464;-0.150;2023-05-01T03:06:12;101596.69;;;19.37;41.68
49063;BME280;34876;51.464;-0.150;2023-05-01T03:08:41;101595.60;;;19.37;41.66
49063;BME280;34876;51.464;-0.150;2023-05-01T03:11:16;101592.42;;;19.37;41.73
49063;BME280;34876;51.464;-0.150;2023-05-01T03:13:45;101590.32;;;19.35;41.75
49063;BME280;34876;51.464;-0.150;2023-05-01T03:16:14;101584.03;;;19.35;41.77
49063;BME280;34876;51.464;-0.150;2023-05-01T03:18:43;101583.78;;;19.35;41.78
49063;BME280;34876;51.464;-0.150;2023-05-01T03:21:13;101582.99;;;19.35;41.82
49063;BME280;34876;51.464;-0.150;2023-05-01T03:23:43;101578.49;;;19.36;41.78
49063;BME280;34876;51.464;-0.150;2023-05-01T03:26:12;101574.30;;;19.36;41.76
49063;BME280;34876;51.464;-0.150;2023-05-01T03:28:41;101575.35;;;19.35;41.80
49063;BME280;34876;51.464;-0.150;2023-05-01T03:31:11;101578.27;;;19.36;41.77
49063;BME280;34876;51.464;-0.150;2023-05-01T03:33:40;101577.50;;;19.36;41.80
49063;BME280;34876;51.464;-0.150;2023-05-01T03:36:09;101577.66;;;19.35;41.84
49063;BME280;34876;51.464;-0.150;2023-05-01T03:38:41;101576.71;;;19.33;41.87
49063;BME280;34876;51.464;-0.150;2023-05-01T03:41:10;101580.38;;;19.35;41.84
49063;BME280;34876;51.464;-0.150;2023-05-01T03:43:40;101578.27;;;19.35;41.87
49063;BME280;34876;51.464;-0.150;2023-05-01T03:46:09;101584.56;;;19.35;41.88
49063;BME280;34876;51.464;-0.150;2023-05-01T03:48:43;101580.73;;;19.35;41.87
49063;BME280;34876;51.464;-0.150;2023-05-01T03:51:14;101578.84;;;19.33;41.90
49063;BME280;34876;51.464;-0.150;2023-05-01T03:53:44;101581.62;;;19.34;41.91
49063;BME280;34876;51.464;-0.150;2023-05-01T03:56:14;101579.33;;;19.34;41.95
49063;BME280;34876;51.464;-0.150;2023-05-01T03:58:44;101576.39;;;19.33;41.94
49063;BME280;34876;51.464;-0.150;2023-05-01T04:01:18;101575.89;;;19.34;41.92
49063;BME280;34876;51.464;-0.150;2023-05-01T04:03:51;101579.92;;;19.33;41.96
49063;BME280;34876;51.464;-0.150;2023-05-01T04:06:21;101578.64;;;19.34;41.95
49063;BME280;34876;51.464;-0.150;2023-05-01T04:08:50;101577.63;;;19.32;42.02
49063;BME280;34876;51.464;-0.150;2023-05-01T04:11:19;101575.05;;;19.34;41.98
49063;BME280;34876;51.464;-0.150;2023-05-01T04:13:57;101572.10;;;19.32;42.02
49063;BME280;34876;51.464;-0.150;2023-05-01T04:16:27;101570.13;;;19.33;42.05
49063;BME280;34876;51.464;-0.150;2023-05-01T04:18:56;101571.36;;;19.27;42.19
49063;BME280;34876;51.464;-0.150;2023-05-01T04:21:26;101576.78;;;19.32;42.09
49063;BME280;34876;51.464;-0.150;2023-05-01T04:23:55;101579.08;;;19.32;42.10
49063;BME280;34876;51.464;-0.150;2023-05-01T04:26:24;101579.15;;;19.33;42.06
49063;BME280;34876;51.464;-0.150;2023-05-01T04:28:53;101578.96;;;19.34;42.03
49063;BME280;34876;51.464;-0.150;2023-05-01T04:31:28;101578.17;;;19.32;42.10
49063;BME280;34876;51.464;-0.150;2023-05-01T04:34:07;101581.68;;;19.33;42.13
49063;BME280;34876;51.464;-0.150;2023-05-01T04:36:37;101586.92;;;19.32;42.16
49063;BME280;34876;51.464;-0.150;2023-05-01T04:39:06;101588.58;;;19.33;42.12
49063;BME280;34876;51.464;-0.150;2023-05-01T04:41:41;101587.29;;;19.33;42.11
49063;BME280;34876;51.464;-0.150;2023-05-01T04:44:11;101588.04;;;19.33;42.10
49063;BME280;34876;51.464;-0.150;2023-05-01T04:46:41;101587.41;;;19.32;42.12
49063;BME280;34876;51.464;-0.150;2023-05-01T04:49:10;101590.17;;;19.30;42.22
49063;BME280;34876;51.464;-0.150;2023-05-01T04:51:40;101592.81;;;19.33;42.13
49063;BME280;34876;51.464;-0.150;2023-05-01T04:54:09;101593.57;;;19.34;42.10
49063;BME280;34876;51.464;-0.150;2023-05-01T04:56:39;101595.93;;;19.34;42.10
49063;BME280;34876;51.464;-0.150;2023-05-01T04:59:09;101591.32;;;19.34;42.10
49063;BME280;34876;51.464;-0.150;2023-05-01T05:01:43;101592.84;;;19.31;42.13
49063;BME280;34876;51.464;-0.150;2023-05-01T05:04:13;101594.71;;;19.32;42.14
49063;BME280;34876;51.464;-0.150;2023-05-01T05:06:43;101595.76;;;19.31;42.14
49063;BME280;34876;51.464;-0.150;2023-05-01T05:09:13;101595.76;;;19.33;42.14
49063;BME280;34876;51.464;-0.150;2023-05-01T05:11:43;101593.93;;;19.31;42.15
49063;BME280;34876;51.464;-0.150;2023-05-01T05:14:12;101590.86;;;19.32;42.15
49063;BME280;34876;51.464;-0.150;2023-05-01T05:16:41;101593.00;;;19.33;42.07
49063;BME280;34876;51.464;-0.150;2023-05-01T05:19:11;101590.23;;;19.32;42.10
49063;BME280;34876;51.464;-0.150;2023-05-01T05:21:39;101596.43;;;19.31;42.11
49063;BME280;34876;51.464;-0.150;2023-05-01T05:24:09;101599.61;;;19.33;42.08
49063;BME280;34876;51.464;-0.150;2023-05-01T05:26:39;101598.65;;;19.31;42.15
49063;BME280;34876;51.464;-0.150;2023-05-01T05:29:09;101600.67;;;19.32;42.11
49063;BME280;34876;51.464;-0.150;2023-05-01T05:31:44;101604.76;;;19.32;42.11
49063;BME280;34876;51.464;-0.150;2023-05-01T05:34:14;101608.02;;;19.32;42.11
49063;BME280;34876;51.464;-0.150;2023-05-01T05:36:48;101606.64;;;19.29;42.20
49063;BME280;34876;51.464;-0.150;2023-05-01T05:39:19;101606.19;;;19.33;42.08
49063;BME280;34876;51.464;-0.150;2023-05-01T05:41:48;101607.73;;;19.32;42.09
49063;BME280;34876;51.464;-0.150;2023-05-01T05:44:17;101602.99;;;19.33;42.06
49063;BME280;34876;51.464;-0.150;2023-05-01T05:46:47;101603.70;;;19.33;42.05
49063;BME280;34876;51.464;-0.150;2023-05-01T05:49:16;101603.84;;;19.30;42.16
49063;BME280;34876;51.464;-0.150;2023-05-01T05:51:45;101604.81;;;19.33;42.05
49063;BME280;34876;51.464;-0.150;2023-05-01T05:54:14;101607.22;;;19.33;42.04
49063;BME280;34876;51.464;-0.150;2023-05-01T05:56:48;101606.31;;;19.30;42.16
49063;BME280;34876;51.464;-0.150;2023-05-01T05:59:18;101605.46;;;19.34;42.06
49063;BME280;34876;51.464;-0.150;2023-05-01T06:01:47;101603.79;;;19.32;42.07
49063;BME280;34876;51.464;-0.150;2023-05-01T06:04:17;101599.63;;;19.33;42.09
49063;BME280;34876;51.464;-0.150;2023-05-01T06:06:46;101602.91;;;19.37;41.98
49063;BME280;34876;51.464;-0.150;2023-05-01T06:09:16;101603.12;;;19.35;42.03
49063;BME280;34876;51.464;-0.150;2023-05-01T06:11:50;101598.88;;;19.34;42.00
49063;BME280;34876;51.464;-0.150;2023-05-01T06:14:19;101599.52;;;19.36;41.94
49063;BME280;34876;51.464;-0.150;2023-05-01T06:16:48;101601.77;;;19.35;41.97
49063;BME280;34876;51.464;-0.150;2023-05-01T06:19:17;101600.77;;;19.36;41.93
49063;BME280;34876;51.464;-0.150;2023-05-01T06:21:46;101606.61;;;19.36;41.97
49063;BME280;34876;51.464;-0.150;2023-05-01T06:24:15;101608.30;;;19.36;41.96
49063;BME280;34876;51.464;-0.150;2023-05-01T06:26:45;101607.61;;;19.37;41.91
49063;BME280;34876;51.464;-0.150;2023-05-01T06:29:14;101608.50;;;19.38;41.92
49063;BME280;34876;51.464;-0.150;2023-05-01T06:31:42;101606.92;;;19.35;42.00
49063;BME280;34876;51.464;-0.150;2023-05-01T06:34:12;101609.19;;;19.36;41.92
49063;BME280;34876;51.464;-0.150;2023-05-01T06:36:41;101609.68;;;19.36;41.93
49063;BME280;34876;51.464;-0.150;2023-05-01T06:39:10;101611.89;;;19.38;41.87
49063;BME280;34876;51.464;-0.150;2023-05-01T06:41:40;101611.50;;;19.38;41.90
49063;BME280;34876;51.464;-0.150;2023-05-01T06:44:09;101611.71;;;19.37;41.92
49063;BME280;34876;51.464;-0.150;2023-05-01T06:46:38;101612.21;;;19.36;41.91
49063;BME280;34876;51.464;-0.150;2023-05-01T06:49:08;101611.49;;;19.36;41.93
49063;BME280;34876;51.464;-0.150;2023-05-01T06:51:37;101608.49;;;19.36;41.92
49063;BME280;34876;51.464;-0.150;2023-05-01T06:54:08;101607.10;;;19.36;41.93
49063;BME280;34876;51.464;-0.150;2023-05-01T06:56:37;101606.17;;;19.39;41.90
49063;BME280;34876;51.464;-0.150;2023-05-01T06:59:11;101606.87;;;19.42;41.80
49063;BME280;34876;51.464;-0.150;2023-05-01T07:01:45;101607.41;;;19.47;41.67
49063;BME280;34876;51.464;-0.150;2023-05-01T07:04:14;101606.51;;;19.46;41.76
49063;BME280;34876;51.464;-0.150;2023-05-01T07:06:44;101606.88;;;19.44;41.77
49063;BME280;34876;51.464;-0.150;2023-05-01T07:09:14;101605.81;;;19.42;41.82
49063;BME280;34876;51.464;-0.150;2023-05-01T07:11:45;101603.94;;;19.41;41.85
49063;BME280;34876;51.464;-0.150;2023-05-01T07:14:20;101606.03;;;19.43;41.79
49063;BME280;34876;51.464;-0.150;2023-05-01T07:16:49;101609.40;;;19.41;41.87
49063;BME280;34876;51.464;-0.150;2023-05-01T07:19:21;101613.93;;;19.42;41.87
49063;BME280;34876;51.464;-0.150;2023-05-01T07:21:51;101616.25;;;19.42;41.91
49063;BME280;34876;51.464;-0.150;2023-05-01T07:24:20;101616.33;;;19.39;41.99
49063;BME280;34876;51.464;-0.150;2023-05-01T07:26:49;101615.01;;;19.41;41.93
49063;BME280;34876;51.464;-0.150;2023-05-01T07:29:19;101616.12;;;19.39;41.97
49063;BME280;34876;51.464;-0.150;2023-05-01T07:31:48;101619.61;;;19.39;41.96
49063;BME280;34876;51.464;-0.150;2023-05-01T07:34:17;101628.22;;;19.40;41.96
49063;BME280;34876;51.464;-0.150;2023-05-01T07:36:47;101628.32;;;19.40;41.92
49063;BME280;34876;51.464;-0.150;2023-05-01T07:39:17;101629.92;;;19.40;42.00
49063;BME280;34876;51.464;-0.150;2023-05-01T07:41:45;101629.47;;;19.37;42.04
49063;BME280;34876;51.464;-0.150;2023-05-01T07:44:19;101630.74;;;19.40;41.96
49063;BME280;34876;51.464;-0.150;2023-05-01T07:46:52;101633.49;;;19.40;41.94
49063;BME280;34876;51.464;-0.150;2023-05-01T07:49:20;101636.14;;;19.39;42.00
49063;BME280;34876;51.464;-0.150;2023-05-01T07:51:50;101640.53;;;19.38;42.04
49063;BME280;34876;51.464;-0.150;2023-05-01T07:54:22;101642.02;;;19.34;42.15
49063;BME280;34876;51.464;-0.150;2023-05-01T07:56:52;101643.71;;;19.37;42.07
49063;BME280;34876;51.464;-0.150;2023-05-01T07:59:20;101644.46;;;19.38;42.03
49063;BME280;34876;51.464;-0.150;2023-05-01T08:01:53;101645.87;;;19.38;42.02
49063;BME280;34876;51.464;-0.150;2023-05-01T08:04:23;101644.56;;;19.40;42.01
49063;BME280;34876;51.464;-0.150;2023-05-01T08:06:53;101640.08;;;19.41;42.02
49063;BME280;34876;51.464;-0.150;2023-05-01T08:09:23;101640.56;;;19.43;41.96
49063;BME280;34876;51.464;-0.150;2023-05-01T08:11:52;101639.47;;;19.41;41.98
49063;BME280;34876;51.464;-0.150;2023-05-01T08:14:24;101643.42;;;19.40;42.02
49063;BME280;34876;51.464;-0.150;2023-05-01T08:16:53;101645.83;;;19.39;42.04
49063;BME280;34876;51.464;-0.150;2023-05-01T08:19:24;101649.22;;;19.41;42.00
49063;BME280;34876;51.464;-0.150;2023-05-01T08:21:53;101647.55;;;19.31;43.87
49063;BME280;34876;51.464;-0.150;2023-05-01T08:24:24;101650.14;;;19.42;41.99
49063;BME280;34876;51.464;-0.150;2023-05-01T08:26:54;101646.06;;;19.43;41.97
49063;BME280;34876;51.464;-0.150;2023-05-01T08:29:22;101649.26;;;19.41;42.03
49063;BME280;34876;51.464;-0.150;2023-05-01T08:31:52;101651.75;;;19.46;41.95
49063;BME280;34876;51.464;-0.150;2023-05-01T08:34:22;101647.33;;;19.44;41.95
49063;BME280;34876;51.464;-0.150;2023-05-01T08:36:52;101647.93;;;19.45;42.00
49063;BME280;34876;51.464;-0.150;2023-05-01T08:39:20;101650.29;;;19.46;41.93
49063;BME280;34876;51.464;-0.150;2023-05-01T08:41:50;101649.89;;;19.47;41.94
49063;BME280;34876;51.464;-0.150;2023-05-01T08:44:24;101650.62;;;19.43;42.00
49063;BME280;34876;51.464;-0.150;2023-05-01T08:47:02;101652.19;;;19.45;42.00
49063;BME280;34876;51.464;-0.150;2023-05-01T08:49:35;101653.88;;;19.43;42.02
49063;BME280;34876;51.464;-0.150;2023-05-01T08:52:13;101653.73;;;19.45;41.98
49063;BME280;34876;51.464;-0.150;2023-05-01T08:54:43;101652.37;;;19.43;42.04
49063;BME280;34876;51.464;-0.150;2023-05-01T08:57:14;101651.38;;;19.45;42.02
49063;BME280;34876;51.464;-0.150;2023-05-01T08:59:47;101649.31;;;19.46;41.97
49063;BME280;34876;51.464;-0.150;2023-05-01T09:02:17;101650.22;;;19.46;42.00
49063;BME280;34876;51.464;-0.150;2023-05-01T09:04:48;101652.20;;;19.48;41.94
49063;BME280;34876;51.464;-0.150;2023-05-01T09:07:18;101656.93;;;19.50;41.92
49063;BME280;34876;51.464;-0.150;2023-05-01T09:09:46;101659.99;;;19.48;41.96
49063;BME280;34876;51.464;-0.150;2023-05-01T09:12:21;101661.21;;;19.47;42.01
49063;BME280;34876;51.464;-0.150;2023-05-01T09:14:57;101659.37;;;19.48;41.96
49063;BME280;34876;51.464;-0.150;2023-05-01T09:17:33;101662.77;;;19.49;41.98
49063;BME280;34876;51.464;-0.150;2023-05-01T09:20:03;101661.38;;;19.50;41.94
49063;BME280;34876;51.464;-0.150;2023-05-01T09:22:33;101661.62;;;19.52;41.94
49063;BME280;34876;51.464;-0.150;2023-05-01T09:25:04;101664.08;;;19.52;41.91
49063;BME280;34876;51.464;-0.150;2023-05-01T09:27:35;101663.78;;;19.49;41.98
49063;BME280;34876;51.464;-0.150;2023-05-01T09:30:07;101669.30;;;19.51;41.98
49063;BME280;34876;51.464;-0.150;2023-05-01T09:32:43;101671.60;;;19.51;42.00
49063;BME280;34876;51.464;-0.150;2023-05-01T09:35:13;101674.66;;;19.50;42.02
49063;BME280;34876;51.464;-0.150;2023-05-01T09:37:48;101676.25;;;19.52;41.98
49063;BME280;34876;51.464;-0.150;2023-05-01T09:40:17;101676.67;;;19.49;42.06
49063;BME280;34876;51.464;-0.150;2023-05-01T09:42:52;101677.51;;;19.44;42.22
49063;BME280;34876;51.464;-0.150;2023-05-01T09:45:22;101679.95;;;19.49;42.10
49063;BME280;34876;51.464;-0.150;2023-05-01T09:47:51;101677.98;;;19.54;41.97
49063;BME280;34876;51.464;-0.150;2023-05-01T09:50:41;101681.40;;;19.60;41.84
49063;BME280;34876;51.464;-0.150;2023-05-01T09:53:10;101683.64;;;19.59;41.90
49063;BME280;34876;51.464;-0.150;2023-05-01T09:55:39;101683.99;;;19.58;41.89
49063;BME280;34876;51.464;-0.150;2023-05-01T09:58:25;101685.50;;;19.58;41.91
49063;BME280;34876;51.464;-0.150;2023-05-01T10:00:55;101687.45;;;19.56;41.98
49063;BME280;34876;51.464;-0.150;2023-05-01T10:03:27;101690.53;;;19.53;42.08
49063;BME280;34876;51.464;-0.150;2023-05-01T10:05:59;101690.28;;;19.41;42.38
49063;BME280;34876;51.464;-0.150;2023-05-01T10:08:43;101692.75;;;19.51;42.12
49063;BME280;34876;51.464;-0.150;2023-05-01T10:11:18;101693.63;;;19.49;42.20
49063;BME280;34876;51.464;-0.150;2023-05-01T10:14:09;101692.42;;;19.49;42.20
49063;BME280;34876;51.464;-0.150;2023-05-01T10:16:40;101692.30;;;19.56;42.04
49063;BME280;34876;51.464;-0.150;2023-05-01T10:19:09;101687.88;;;19.57;42.03
49063;BME280;34876;51.464;-0.150;2023-05-01T10:21:41;101688.56;;;19.59;41.96
49063;BME280;34876;51.464;-0.150;2023-05-01T10:24:13;101688.69;;;19.64;41.87
49063;BME280;34876;51.464;-0.150;2023-05-01T10:26:48;101690.80;;;19.64;41.86
49063;BME280;34876;51.464;-0.150;2023-05-01T10:29:27;101690.67;;;19.68;41.77
49063;BME280;34876;51.464;-0.150;2023-05-01T10:32:00;101688.57;;;19.67;41.84
49063;BME280;34876;51.464;-0.150;2023-05-01T10:34:34;101686.83;;;19.64;42.06
49063;BME280;34876;51.464;-0.150;2023-05-01T10:37:10;101686.89;;;19.76;41.67
49063;BME280;34876;51.464;-0.150;2023-05-01T10:39:41;101686.87;;;19.77;41.60
49063;BME280;34876;51.464;-0.150;2023-05-01T10:42:10;101686.40;;;19.82;41.53
49063;BME280;34876;51.464;-0.150;2023-05-01T10:44:40;101681.76;;;19.73;41.79
49063;BME280;34876;51.464;-0.150;2023-05-01T10:50:02;101681.14;;;19.57;44.31
49063;BME280;34876;51.464;-0.150;2023-05-01T10:53:15;101679.21;;;19.54;42.87
49063;BME280;34876;51.464;-0.150;2023-05-01T10:55:45;101677.20;;;19.97;42.11
49063;BME280;34876;51.464;-0.150;2023-05-01T10:58:56;101672.68;;;20.08;41.68
49063;BME280;34876;51.464;-0.150;2023-05-01T11:01:32;101672.52;;;19.98;41.18
49063;BME280;34876;51.464;-0.150;2023-05-01T11:04:03;101674.54;;;20.02;41.30
49063;BME280;34876;51.464;-0.150;2023-05-01T11:06:34;101668.68;;;20.12;40.82
49063;BME280;34876;51.464;-0.150;2023-05-01T11:09:35;101671.94;;;19.73;42.47
49063;BME280;34876;51.464;-0.150;2023-05-01T11:12:05;101665.00;;;20.09;41.01
49063;BME280;34876;51.464;-0.150;2023-05-01T11:15:08;101659.61;;;20.22;40.57
49063;BME280;34876;51.464;-0.150;2023-05-01T11:17:45;101658.93;;;20.30;40.97
49063;BME280;34876;51.464;-0.150;2023-05-01T11:20:48;101661.96;;;20.00;42.07
49063;BME280;34876;51.464;-0.150;2023-05-01T11:23:18;101662.02;;;19.80;41.57
49063;BME280;34876;51.464;-0.150;2023-05-01T11:25:48;101656.38;;;20.13;40.77
49063;BME280;34876;51.464;-0.150;2023-05-01T11:28:19;101655.34;;;20.28;41.09
49063;BME280;34876;51.464;-0.150;2023-05-01T11:30:48;101658.90;;;19.92;41.73
49063;BME280;34876;51.464;-0.150;2023-05-01T11:33:23;101649.36;;;20.23;40.54
49063;BME280;34876;51.464;-0.150;2023-05-01T11:35:58;101654.24;;;19.59;42.61
49063;BME280;34876;51.464;-0.150;2023-05-01T11:38:27;101654.53;;;19.81;41.51
49063;BME280;34876;51.464;-0.150;2023-05-01T11:41:00;101657.69;;;19.87;41.33
49063;BME280;34876;51.464;-0.150;2023-05-01T11:43:30;101653.53;;;20.13;40.81
49063;BME280;34876;51.464;-0.150;2023-05-01T11:45:59;101656.20;;;19.61;42.04
49063;BME280;34876;51.464;-0.150;2023-05-01T11:48:34;101653.35;;;19.83;41.88
49063;BME280;34876;51.464;-0.150;2023-05-01T11:51:11;101654.18;;;19.78;42.10
49063;BME280;34876;51.464;-0.150;2023-05-01T11:53:40;101655.55;;;19.47;42.38
49063;BME280;34876;51.464;-0.150;2023-05-01T11:56:24;101656.66;;;19.99;41.10
49063;BME280;34876;51.464;-0.150;2023-05-01T11:58:53;101655.69;;;20.08;40.89
49063;BME280;34876;51.464;-0.150;2023-05-01T12:01:32;101654.62;;;20.05;40.90
49063;BME280;34876;51.464;-0.150;2023-05-01T12:04:01;101660.09;;;19.97;41.21
49063;BME280;34876;51.464;-0.150;2023-05-01T12:06:39;101659.56;;;19.94;41.18
49063;BME280;34876;51.464;-0.150;2023-05-01T12:09:10;101659.07;;;19.94;40.94
49063;BME280;34876;51.464;-0.150;2023-05-01T12:11:40;101664.11;;;19.69;41.92
49063;BME280;34876;51.464;-0.150;2023-05-01T12:14:10;101666.65;;;19.21;42.88
49063;BME280;34876;51.464;-0.150;2023-05-01T12:16:40;101668.72;;;19.33;42.59
49063;BME280;34876;51.464;-0.150;2023-05-01T12:19:13;101668.33;;;18.80;43.59
49063;BME280;34876;51.464;-0.150;2023-05-01T12:21:42;101666.24;;;19.08;43.20
49063;BME280;34876;51.464;-0.150;2023-05-01T12:24:12;101666.16;;;19.14;43.11
49063;BME280;34876;51.464;-0.150;2023-05-01T12:26:43;101680.78;;;18.34;47.17
49063;BME280;34876;51.464;-0.150;2023-05-01T12:29:11;101678.74;;;18.75;44.38
49063;BME280;34876;51.464;-0.150;2023-05-01T12:31:46;101678.48;;;18.89;44.60
49063;BME280;34876;51.464;-0.150;2023-05-01T12:34:17;101678.31;;;18.98;45.38
49063;BME280;34876;51.464;-0.150;2023-05-01T12:37:03;101674.66;;;19.55;42.24
49063;BME280;34876;51.464;-0.150;2023-05-01T12:39:36;101671.48;;;19.72;41.80
49063;BME280;34876;51.464;-0.150;2023-05-01T12:42:14;101676.22;;;19.74;41.79
49063;BME280;34876;51.464;-0.150;2023-05-01T12:44:43;101678.10;;;19.80;41.62
49063;BME280;34876;51.464;-0.150;2023-05-01T12:47:13;101682.42;;;19.80;41.63
49063;BME280;34876;51.464;-0.150;2023-05-01T12:49:42;101686.92;;;19.63;42.09
49063;BME280;34876;51.464;-0.150;2023-05-01T12:52:12;101688.43;;;19.56;43.73
49063;BME280;34876;51.464;-0.150;2023-05-01T12:54:42;101688.81;;;19.55;43.29
49063;BME280;34876;51.464;-0.150;2023-05-01T12:57:13;101687.74;;;19.80;41.67
49063;BME280;34876;51.464;-0.150;2023-05-01T12:59:47;101690.86;;;19.86;41.55
49063;BME280;34876;51.464;-0.150;2023-05-01T13:02:30;101695.95;;;19.61;43.08
49063;BME280;34876;51.464;-0.150;2023-05-01T13:05:10;101698.24;;;19.68;42.11
49063;BME280;34876;51.464;-0.150;2023-05-01T13:07:47;101696.48;;;19.77;41.81
49063;BME280;34876;51.464;-0.150;2023-05-01T13:10:29;101701.75;;;19.49;43.98
49063;BME280;34876;51.464;-0.150;2023-05-01T13:12:58;101699.02;;;19.71;41.99